WZZ2114 EPWA-EKCH
Flight info
| Callsign | WZZ2114 |
|---|---|
| Flight time | N/A |
| Altitude | 36000 |
| Route | OLILA L621 LUSID DCT ROE M743 TIDVU |
| Aircraft | A321/M-SDE3FGHIRWY/LB1 |
Departure
| Time | 2026-05-06 18:36 |
|---|---|
| Airport | Warsaw Chopin Airport (EPWA) |
Arrival
| Time | N/A |
|---|---|
| Airport | Copenhagen Kastrup Airport (EKCH) |
| Time | Latitude | Longitude | Altitude | Speed | Heading |
|---|---|---|---|---|---|
| 2026-05-06 17:54 | 52.17757 | 20.96209 | 339 ft | 0 kts | 242° |
| 2026-05-06 18:22 | 52.17757 | 20.96208 | 339 ft | 0 kts | 242° |
| 2026-05-06 18:23 | 52.17753 | 20.96197 | 335 ft | 2 kts | 242° |
| 2026-05-06 18:23 | 52.17746 | 20.96176 | 334 ft | 3 kts | 241° |
| 2026-05-06 18:23 | 52.17736 | 20.96147 | 336 ft | 3 kts | 239° |
| 2026-05-06 18:23 | 52.17724 | 20.96132 | 337 ft | 3 kts | 207° |
| 2026-05-06 18:24 | 52.17637 | 20.96181 | 335 ft | 6 kts | 152° |
| 2026-05-06 18:24 | 52.17601 | 20.96213 | 336 ft | 6 kts | 151° |
| 2026-05-06 18:25 | 52.17559 | 20.96249 | 336 ft | 7 kts | 151° |
| 2026-05-06 18:25 | 52.17513 | 20.96290 | 337 ft | 8 kts | 152° |
| 2026-05-06 18:25 | 52.17508 | 20.96295 | 337 ft | 0 kts | 152° |
| 2026-05-06 18:28 | 52.17506 | 20.96297 | 337 ft | 1 kts | 152° |
| 2026-05-06 18:28 | 52.17497 | 20.96305 | 336 ft | 3 kts | 152° |
| 2026-05-06 18:29 | 52.17469 | 20.96328 | 338 ft | 6 kts | 152° |
| 2026-05-06 18:29 | 52.17420 | 20.96371 | 337 ft | 10 kts | 151° |
| 2026-05-06 18:29 | 52.17350 | 20.96432 | 333 ft | 13 kts | 152° |
| 2026-05-06 18:29 | 52.17270 | 20.96502 | 336 ft | 12 kts | 152° |
| 2026-05-06 18:30 | 52.17193 | 20.96569 | 336 ft | 13 kts | 152° |
| 2026-05-06 18:30 | 52.17135 | 20.96619 | 335 ft | 9 kts | 152° |
| 2026-05-06 18:30 | 52.17076 | 20.96672 | 337 ft | 10 kts | 152° |
| 2026-05-06 18:30 | 52.17012 | 20.96729 | 337 ft | 11 kts | 152° |
| 2026-05-06 18:31 | 52.16941 | 20.96791 | 337 ft | 12 kts | 151° |
| 2026-05-06 18:31 | 52.16866 | 20.96855 | 336 ft | 13 kts | 152° |
| 2026-05-06 18:31 | 52.16787 | 20.96924 | 335 ft | 13 kts | 152° |
| 2026-05-06 18:31 | 52.16717 | 20.96985 | 335 ft | 10 kts | 152° |
| 2026-05-06 18:32 | 52.16667 | 20.97046 | 336 ft | 9 kts | 124° |
| 2026-05-06 18:32 | 52.16640 | 20.97139 | 338 ft | 10 kts | 114° |
| 2026-05-06 18:32 | 52.16610 | 20.97244 | 337 ft | 11 kts | 114° |
| 2026-05-06 18:32 | 52.16579 | 20.97356 | 335 ft | 11 kts | 115° |
| 2026-05-06 18:33 | 52.16544 | 20.97478 | 337 ft | 12 kts | 114° |
| 2026-05-06 18:33 | 52.16508 | 20.97607 | 335 ft | 13 kts | 114° |
| 2026-05-06 18:33 | 52.16482 | 20.97698 | 338 ft | 6 kts | 115° |
| 2026-05-06 18:33 | 52.16463 | 20.97767 | 337 ft | 7 kts | 116° |
| 2026-05-06 18:34 | 52.16420 | 20.97805 | 338 ft | 7 kts | 184° |
| 2026-05-06 18:34 | 52.16384 | 20.97781 | 337 ft | 3 kts | 204° |
| 2026-05-06 18:34 | 52.16362 | 20.97765 | 339 ft | 4 kts | 204° |
| 2026-05-06 18:34 | 52.16332 | 20.97741 | 335 ft | 6 kts | 208° |
| 2026-05-06 18:35 | 52.16308 | 20.97686 | 336 ft | 7 kts | 259° |
| 2026-05-06 18:35 | 52.16317 | 20.97634 | 335 ft | 0 kts | 292° |
| 2026-05-06 18:35 | 52.16319 | 20.97626 | 336 ft | 9 kts | 292° |
| 2026-05-06 18:35 | 52.16453 | 20.97155 | 335 ft | 80 kts | 294° |
| 2026-05-06 18:36 | 52.16761 | 20.96067 | 338 ft | 131 kts | 291° |
| 2026-05-06 18:36 | 52.17172 | 20.94604 | 398 ft | 164 kts | 297° |
| 2026-05-06 18:36 | 52.17660 | 20.92931 | 870 ft | 165 kts | 295° |
| 2026-05-06 18:36 | 52.18122 | 20.91339 | 1460 ft | 164 kts | 294° |
| 2026-05-06 18:37 | 52.18880 | 20.89861 | 2053 ft | 173 kts | 326° |
| 2026-05-06 18:37 | 52.19967 | 20.88984 | 2487 ft | 180 kts | 332° |
| 2026-05-06 18:37 | 52.21141 | 20.88146 | 2735 ft | 194 kts | 332° |
| 2026-05-06 18:37 | 52.22300 | 20.86943 | 2962 ft | 202 kts | 312° |
| 2026-05-06 18:38 | 52.23337 | 20.85299 | 3134 ft | 218 kts | 315° |
| 2026-05-06 18:38 | 52.24563 | 20.83799 | 3290 ft | 238 kts | 321° |
| 2026-05-06 18:38 | 52.26009 | 20.82186 | 3611 ft | 256 kts | 322° |
| 2026-05-06 18:38 | 52.27508 | 20.80556 | 4112 ft | 267 kts | 322° |
| 2026-05-06 18:39 | 52.29070 | 20.78869 | 4764 ft | 271 kts | 322° |
| 2026-05-06 18:39 | 52.30641 | 20.77167 | 5432 ft | 274 kts | 322° |
| 2026-05-06 18:39 | 52.32232 | 20.75430 | 6134 ft | 276 kts | 321° |
| 2026-05-06 18:40 | 52.33292 | 20.74265 | 6568 ft | 278 kts | 321° |
| 2026-05-06 18:40 | 52.37203 | 20.69952 | 8133 ft | 284 kts | 321° |
| 2026-05-06 18:41 | 52.41735 | 20.64937 | 9884 ft | 292 kts | 320° |
| 2026-05-06 18:41 | 52.42308 | 20.64302 | 10038 ft | 296 kts | 320° |
| 2026-05-06 18:42 | 52.49634 | 20.56128 | 11139 ft | 350 kts | 321° |
| 2026-05-06 18:42 | 52.51633 | 20.53901 | 11690 ft | 353 kts | 321° |
| 2026-05-06 18:42 | 52.53663 | 20.51641 | 12278 ft | 355 kts | 321° |
| 2026-05-06 18:42 | 52.55727 | 20.49343 | 12845 ft | 358 kts | 321° |
| 2026-05-06 18:43 | 52.57795 | 20.47040 | 13408 ft | 361 kts | 321° |
| 2026-05-06 18:43 | 52.59882 | 20.44706 | 13925 ft | 364 kts | 320° |
| 2026-05-06 18:43 | 52.61979 | 20.42357 | 14407 ft | 367 kts | 320° |
| 2026-05-06 18:43 | 52.64097 | 20.39981 | 14894 ft | 370 kts | 320° |
| 2026-05-06 18:44 | 52.66227 | 20.37586 | 15375 ft | 372 kts | 320° |
| 2026-05-06 18:44 | 52.68371 | 20.35171 | 15855 ft | 375 kts | 320° |
| 2026-05-06 18:44 | 52.70459 | 20.32595 | 16337 ft | 373 kts | 313° |
| 2026-05-06 18:44 | 52.72234 | 20.29570 | 16806 ft | 371 kts | 306° |
| 2026-05-06 18:45 | 52.73953 | 20.26382 | 17273 ft | 375 kts | 306° |
| 2026-05-06 18:45 | 52.75700 | 20.23155 | 17748 ft | 377 kts | 306° |
| 2026-05-06 18:45 | 52.77457 | 20.19913 | 18204 ft | 380 kts | 306° |
| 2026-05-06 18:45 | 52.78650 | 20.17714 | 18486 ft | 382 kts | 306° |
| 2026-05-06 18:46 | 52.81009 | 20.13366 | 19054 ft | 385 kts | 306° |
| 2026-05-06 18:46 | 52.82773 | 20.10032 | 19475 ft | 386 kts | 305° |
| 2026-05-06 18:46 | 52.86215 | 20.03284 | 20119 ft | 395 kts | 304° |
| 2026-05-06 18:46 | 52.89997 | 19.95626 | 18989 ft | 445 kts | 304° |